Time;durP1;ratioP1;P1;durP2;ratioP2;P2;SDS_P1;SDS_P2;PMS_P1;PMS_P2;Temp;Humidity;BMP_temperature;BMP_pressure;BME280_temperature;BME280_humidity;BME280_pressure;Samples;Min_cycle;Max_cycle;Signal;HPM_P1;HPM_P2
2023/03/26 00:01:57;;;;;;;10.00;7.20;;;;;;;7.73;79.06;99176.42;104288;277;96635;-58
2023/03/26 00:04:32;;;;;;;10.50;6.80;;;;;;;7.68;79.09;99178.92;104712;277;120388;-58
2023/03/26 00:07:06;;;;;;;11.20;7.10;;;;;;;7.63;78.94;99179.52;104699;277;105619;-58
2023/03/26 00:09:40;;;;;;;10.20;6.60;;;;;;;7.50;79.03;99178.22;104760;277;114374;-60
2023/03/26 00:12:17;;;;;;;10.60;6.50;;;;;;;7.41;79.19;99176.04;104266;277;94978;-60
2023/03/26 00:14:51;;;;;;;10.80;6.80;;;;;;;7.40;79.23;99169.95;104123;278;97984;-60
2023/03/26 00:17:25;;;;;;;11.60;6.40;;;;;;;7.32;79.14;99170.23;104107;278;119808;-59
2023/03/26 00:19:59;;;;;;;11.00;6.40;;;;;;;7.20;79.18;99166.23;104093;277;104137;-58
2023/03/26 00:22:33;;;;;;;10.50;6.50;;;;;;;7.09;79.31;99167.70;104525;277;114506;-59
2023/03/26 00:25:08;;;;;;;11.50;6.20;;;;;;;7.05;79.49;99165.65;104554;282;97161;-59
2023/03/26 00:27:44;;;;;;;11.30;6.80;;;;;;;7.04;79.47;99165.66;104134;278;96565;-58
2023/03/26 00:30:18;;;;;;;10.70;6.70;;;;;;;7.02;79.55;99160.60;104139;277;119557;-58
2023/03/26 00:32:52;;;;;;;11.80;6.50;;;;;;;6.98;79.63;99157.44;104137;266;106196;-60
2023/03/26 00:35:28;;;;;;;10.60;6.20;;;;;;;6.96;79.68;99154.35;104104;278;114453;-60
2023/03/26 00:38:02;;;;;;;10.30;6.30;;;;;;;6.87;80.07;99153.73;104099;277;96245;-58
2023/03/26 00:40:36;;;;;;;8.80;6.00;;;;;;;6.87;79.92;99152.15;104539;277;95340;-59
2023/03/26 00:43:17;;;;;;;9.70;6.30;;;;;;;6.85;79.95;99148.88;104145;277;118929;-54
2023/03/26 00:45:54;;;;;;;11.10;7.10;;;;;;;6.88;80.13;99148.04;104129;277;104878;-54
2023/03/26 00:48:28;;;;;;;10.40;6.90;;;;;;;6.91;80.35;99151.19;104123;277;114924;-60
2023/03/26 00:51:00;;;;;;;;;;;;;;;6.92;80.30;99148.76;104073;277;96414;-59
2023/03/26 00:53:37;;;;;;;14.70;8.20;;;;;;;6.91;80.39;99148.30;104102;277;95866;-54
2023/03/26 00:56:12;;;;;;;18.90;10.30;;;;;;;6.95;80.47;99150.02;104529;277;119211;-54
2023/03/26 00:58:48;;;;;;;15.10;8.50;;;;;;;6.97;80.44;99149.90;104071;277;104240;-54
2023/03/26 01:01:26;;;;;;;21.80;11.90;;;;;;;7.03;80.45;99153.54;104069;278;114130;-54
2023/03/26 01:04:14;;;;;;;22.30;12.50;;;;;;;7.09;80.29;99151.14;104103;277;96594;-54
2023/03/26 01:06:49;;;;;;;15.10;8.60;;;;;;;7.16;80.40;99150.52;104116;277;97712;-54
2023/03/26 01:09:32;;;;;;;18.20;10.10;;;;;;;7.19;80.36;99151.90;104062;278;118499;-54
2023/03/26 01:12:12;;;;;;;11.80;7.00;;;;;;;7.25;80.38;99149.61;104080;277;104695;-53
2023/03/26 01:14:46;;;;;;;10.90;7.30;;;;;;;7.31;80.18;99145.60;104072;278;115080;-54
2023/03/26 01:17:19;;;;;;;;;;;;;;;7.33;80.40;99142.84;104527;278;94069;-55
2023/03/26 01:20:00;;;;;;;8.40;5.30;;;;;;;7.33;80.45;99145.49;104141;278;97992;-54
2023/03/26 01:22:36;;;;;;;8.60;5.40;;;;;;;7.33;80.29;99140.15;104509;278;121211;-54
2023/03/26 01:25:11;;;;;;;11.90;5.90;;;;;;;7.33;80.16;99141.65;104109;281;104018;-54
2023/03/26 01:27:50;;;;;;;10.20;5.30;;;;;;;7.31;80.18;99136.50;104545;278;112197;-54
2023/03/26 01:30:32;;;;;;;8.30;4.80;;;;;;;7.32;80.05;99135.48;104153;278;94801;-54
2023/03/26 01:33:15;;;;;;;7.90;4.80;;;;;;;7.31;79.95;99134.77;104200;278;97708;-54
2023/03/26 01:35:57;;;;;;;7.90;5.50;;;;;;;7.32;79.91;99129.81;104150;278;121132;-54
2023/03/26 01:38:38;;;;;;;7.00;5.00;;;;;;;7.32;79.98;99127.39;104161;278;105483;-58
2023/03/26 01:41:17;;;;;;;9.10;5.00;;;;;;;7.30;80.17;99123.24;104160;270;113949;-58
2023/03/26 01:44:00;;;;;;;8.50;5.40;;;;;;;7.32;80.15;99122.77;104153;278;93952;-54
2023/03/26 01:46:36;;;;;;;7.80;5.10;;;;;;;7.29;80.06;99114.80;104141;278;97996;-54
2023/03/26 01:49:11;;;;;;;8.60;5.90;;;;;;;7.23;80.01;99111.80;104126;278;120740;-59
2023/03/26 01:51:46;;;;;;;9.40;5.40;;;;;;;7.23;80.07;99110.92;104503;278;104850;-59
2023/03/26 01:54:22;;;;;;;;;;;;;;;7.23;80.06;99110.02;104179;278;113877;-58
2023/03/26 01:57:10;;;;;;;8.90;5.80;;;;;;;7.19;80.35;99111.78;104510;278;94822;-58
2023/03/26 02:00:10;;;;;;;8.60;5.40;;;;;;;7.20;80.24;99107.69;104206;278;97404;-58
2023/03/26 02:02:58;;;;;;;9.00;5.10;;;;;;;7.23;80.32;99103.79;104469;278;121383;-54
2023/03/26 02:05:37;;;;;;;8.10;5.00;;;;;;;7.24;80.38;99101.05;104511;278;105278;-54
2023/03/26 02:08:21;;;;;;;8.40;4.90;;;;;;;7.25;80.29;99101.27;104128;294;113151;-54
2023/03/26 02:11:00;;;;;;;9.70;5.20;;;;;;;7.27;80.27;99094.92;104172;278;94813;-53
2023/03/26 02:13:34;;;;;;;8.50;5.10;;;;;;;7.29;80.33;99096.26;104269;277;97406;-53
2023/03/26 02:16:12;;;;;;;7.30;5.00;;;;;;;7.29;80.09;99093.69;104284;277;120912;-53
2023/03/26 02:18:50;;;;;;;6.90;4.20;;;;;;;7.21;80.16;99090.05;104751;277;105873;-59
2023/03/26 02:21:26;;;;;;;7.40;3.90;;;;;;;7.16;80.39;99087.30;104058;277;113638;-59
2023/03/26 02:24:02;;;;;;;6.60;4.80;;;;;;;7.13;80.25;99078.91;104035;276;96350;-54
2023/03/26 02:26:37;;;;;;;7.50;4.40;;;;;;;7.08;80.40;99077.77;104307;277;98578;-53
2023/03/26 02:29:13;;;;;;;6.50;4.40;;;;;;;7.06;80.39;99077.96;104776;277;120642;-54
2023/03/26 02:31:47;;;;;;;8.60;4.20;;;;;;;7.00;80.41;99078.52;104256;277;105402;-54
2023/03/26 02:34:21;;;;;;;5.90;3.90;;;;;;;6.95;80.45;99079.65;104722;277;113455;-58
2023/03/26 02:36:56;;;;;;;6.30;4.60;;;;;;;6.90;80.49;99082.88;104251;277;94988;-58
2023/03/26 02:39:30;;;;;;;5.90;3.90;;;;;;;6.81;80.61;99083.39;104778;277;98612;-53
2023/03/26 02:42:04;;;;;;;8.10;4.30;;;;;;;6.78;80.73;99079.73;104795;277;121611;-53
2023/03/26 02:44:39;;;;;;;6.90;4.20;;;;;;;6.72;80.70;99079.30;104771;276;104848;-54
2023/03/26 02:47:14;;;;;;;7.40;3.90;;;;;;;6.67;80.87;99078.70;104280;276;113864;-54
2023/03/26 02:49:48;;;;;;;6.40;4.40;;;;;;;6.66;81.17;99079.10;104305;276;97011;-58
2023/03/26 02:52:23;;;;;;;7.50;4.00;;;;;;;6.73;81.18;99075.09;104756;276;96534;-54
2023/03/26 02:54:57;;;;;;;5.50;4.10;;;;;;;6.78;81.38;99072.61;104743;276;121268;-53
2023/03/26 02:57:30;;;;;;;7.40;4.30;;;;;;;6.86;81.34;99075.88;104290;276;106000;-59
2023/03/26 03:00:14;;;;;;;6.70;4.10;;;;;;;6.91;81.51;99072.80;104283;276;114011;-59
2023/03/26 03:02:48;;;;;;;6.50;4.70;;;;;;;7.00;81.60;99074.58;104305;276;95424;-59
2023/03/26 03:05:25;;;;;;;5.80;3.80;;;;;;;7.01;81.50;99072.02;104774;277;98549;-59
2023/03/26 03:07:59;;;;;;;7.30;4.50;;;;;;;7.06;81.74;99074.23;104774;276;119061;-53
2023/03/26 03:10:33;;;;;;;8.20;4.60;;;;;;;7.11;81.67;99076.13;104285;276;103663;-53
2023/03/26 03:13:06;;;;;;;;;;;;;;;7.19;81.82;99074.92;104298;277;112938;-58
2023/03/26 03:15:40;;;;;;;11.10;4.70;;;;;;;7.22;81.91;99078.20;104759;288;95785;-58
2023/03/26 03:18:14;;;;;;;6.70;4.00;;;;;;;7.28;81.65;99081.05;104772;280;100836;-54
2023/03/26 03:20:48;;;;;;;7.30;4.30;;;;;;;7.33;81.67;99078.26;104290;277;120116;-54
2023/03/26 03:23:21;;;;;;;;;;;;;;;7.35;81.38;99077.56;104312;276;106053;-59
2023/03/26 03:25:55;;;;;;;6.90;4.30;;;;;;;7.32;81.35;99081.52;104264;276;114363;-59
2023/03/26 03:28:30;;;;;;;7.10;4.30;;;;;;;7.31;81.36;99079.52;104279;276;96337;-57
2023/03/26 03:31:04;;;;;;;7.10;4.00;;;;;;;7.32;81.28;99078.74;104282;276;98356;-57
2023/03/26 03:33:41;;;;;;;8.50;4.40;;;;;;;7.34;81.26;99083.00;104264;276;120814;-53
2023/03/26 03:36:18;;;;;;;6.30;4.10;;;;;;;7.34;81.24;99083.95;104764;277;104718;-53
2023/03/26 03:38:52;;;;;;;7.20;4.50;;;;;;;7.33;81.04;99081.14;104252;277;115016;-53
2023/03/26 03:41:25;;;;;;;;;;;;;;;7.32;81.01;99077.66;104308;277;96342;-53
2023/03/26 03:44:00;;;;;;;8.10;4.00;;;;;;;7.30;81.12;99077.94;104755;276;96338;-54
2023/03/26 03:46:34;;;;;;;8.90;4.00;;;;;;;7.29;81.07;99080.04;104288;276;119148;-61
2023/03/26 03:49:08;;;;;;;6.10;3.80;;;;;;;7.33;81.25;99080.10;104335;276;105241;-54
2023/03/26 03:51:42;;;;;;;7.50;4.10;;;;;;;7.36;81.13;99081.02;104291;276;113972;-54
2023/03/26 03:54:16;;;;;;;7.00;4.30;;;;;;;7.35;81.27;99086.77;104299;276;93819;-54
2023/03/26 03:56:50;;;;;;;6.40;3.20;;;;;;;7.31;81.39;99086.98;104787;276;97774;-54
2023/03/26 03:59:24;;;;;;;7.40;4.10;;;;;;;7.29;81.16;99082.52;104300;276;120398;-54
2023/03/26 04:01:58;;;;;;;6.70;3.60;;;;;;;7.27;81.38;99089.79;104700;276;104885;-54
2023/03/26 04:04:33;;;;;;;7.20;4.00;;;;;;;7.28;81.42;99088.35;104165;276;114291;-54
2023/03/26 04:07:07;;;;;;;6.30;3.50;;;;;;;7.31;81.43;99081.84;104559;277;96958;-54
2023/03/26 04:09:41;;;;;;;6.10;3.70;;;;;;;7.34;81.27;99080.40;104111;277;97531;-54
2023/03/26 04:12:15;;;;;;;5.50;3.10;;;;;;;7.38;81.40;99082.23;104101;277;120843;-53
2023/03/26 04:14:48;;;;;;;;;;;;;;;7.41;81.25;99079.11;104407;279;105560;-58
2023/03/26 04:17:22;;;;;;;5.90;3.10;;;;;;;7.40;81.42;99073.73;104031;279;112273;-57
2023/03/26 04:19:56;;;;;;;6.00;3.00;;;;;;;7.38;81.32;99071.25;104013;279;97359;-58
2023/03/26 04:22:33;;;;;;;6.80;3.50;;;;;;;7.35;81.41;99068.66;104055;279;96250;-58
2023/03/26 04:25:08;;;;;;;4.80;3.20;;;;;;;7.32;81.22;99070.27;104423;279;120264;-58
2023/03/26 04:27:42;;;;;;;6.50;3.40;;;;;;;7.30;81.33;99067.33;104088;279;105212;-54
2023/03/26 04:30:20;;;;;;;6.40;4.10;;;;;;;7.30;81.31;99066.47;104022;279;112863;-54
2023/03/26 04:32:57;;;;;;;7.10;3.70;;;;;;;7.31;81.28;99066.62;104027;279;95157;-54
2023/03/26 04:35:34;;;;;;;6.80;3.60;;;;;;;7.30;81.17;99067.33;104026;279;97208;-53
2023/03/26 04:38:10;;;;;;;10.70;5.40;;;;;;;7.33;81.30;99069.70;104037;279;121030;-54
2023/03/26 04:40:46;;;;;;;10.60;5.50;;;;;;;7.35;81.26;99068.80;104392;279;106189;-53
2023/03/26 04:43:20;;;;;;;6.20;4.10;;;;;;;7.36;81.31;99067.59;104034;279;114755;-58
2023/03/26 04:45:54;;;;;;;6.30;3.70;;;;;;;7.36;81.43;99067.06;104060;279;95866;-58
2023/03/26 04:48:29;;;;;;;6.30;3.70;;;;;;;7.41;81.49;99067.54;104421;279;97359;-53
2023/03/26 04:51:01;;;;;;;;;;;;;;;7.45;81.61;99065.48;104068;279;121161;-53
2023/03/26 04:53:36;;;;;;;7.80;3.70;;;;;;;7.45;81.86;99069.33;104026;279;105196;-54
2023/03/26 04:56:30;;;;;;;7.60;4.00;;;;;;;7.47;81.95;99068.50;104017;279;114857;-54
2023/03/26 04:59:04;;;;;;;5.60;3.60;;;;;;;7.43;82.07;99068.13;104060;279;96361;-54
2023/03/26 05:01:38;;;;;;;6.60;4.00;;;;;;;7.44;82.05;99064.23;104047;279;97599;-53
2023/03/26 05:04:13;;;;;;;7.00;3.80;;;;;;;7.48;82.02;99062.92;104059;279;121162;-54
2023/03/26 05:06:45;;;;;;;;;;;;;;;7.48;81.92;99064.36;104075;279;105979;-54
2023/03/26 05:09:19;;;;;;;6.50;4.00;;;;;;;7.48;82.03;99065.82;104042;279;115025;-53
2023/03/26 05:11:53;;;;;;;8.20;4.10;;;;;;;7.52;81.84;99063.15;104058;279;96056;-53
2023/03/26 05:14:27;;;;;;;8.90;3.90;;;;;;;7.53;81.82;99065.55;104405;279;97640;-59
2023/03/26 05:17:04;;;;;;;4.80;3.50;;;;;;;7.54;81.72;99063.34;104026;279;121678;-59
2023/03/26 05:19:39;;;;;;;7.50;4.20;;;;;;;7.57;81.72;99060.85;103818;279;105414;-54
2023/03/26 05:22:14;;;;;;;7.60;4.50;;;;;;;7.65;81.85;99063.80;104008;279;115505;-53
2023/03/26 05:24:48;;;;;;;6.40;3.90;;;;;;;7.71;81.73;99063.81;104001;279;95685;-59
2023/03/26 05:27:22;;;;;;;6.50;3.80;;;;;;;7.76;81.64;99065.98;104033;279;96539;-54
2023/03/26 05:30:02;;;;;;;7.60;4.20;;;;;;;7.82;81.52;99064.90;104406;279;120900;-53
2023/03/26 05:32:36;;;;;;;7.80;4.30;;;;;;;7.89;81.39;99065.41;104443;279;103145;-54
2023/03/26 05:35:11;;;;;;;6.50;3.70;;;;;;;7.91;81.30;99062.77;104013;279;114510;-54
2023/03/26 05:37:48;;;;;;;7.30;4.30;;;;;;;7.95;81.21;99066.38;104435;279;94403;-62
2023/03/26 05:40:22;;;;;;;6.50;3.40;;;;;;;7.98;81.14;99065.06;104444;279;97967;-58
2023/03/26 05:42:56;;;;;;;7.20;3.70;;;;;;;8.02;81.08;99061.48;103964;279;121172;-54
2023/03/26 05:45:30;;;;;;;6.40;3.60;;;;;;;8.07;80.88;99055.21;103982;279;105476;-54
2023/03/26 05:48:04;;;;;;;7.50;4.00;;;;;;;8.13;80.83;99052.90;103971;278;114716;-58
2023/03/26 05:50:38;;;;;;;6.70;3.90;;;;;;;8.19;80.78;99053.73;104468;278;95648;-58
2023/03/26 05:53:12;;;;;;;6.70;4.40;;;;;;;8.27;80.78;99055.02;104530;278;98534;-54
2023/03/26 05:55:49;;;;;;;6.00;3.80;;;;;;;8.34;80.62;99055.38;104046;278;119404;-53
2023/03/26 05:58:23;;;;;;;6.80;4.00;;;;;;;8.37;80.58;99055.13;104076;278;105050;-53
2023/03/26 06:01:09;;;;;;;5.00;3.50;;;;;;;8.43;80.29;99054.58;104463;278;115002;-53
2023/03/26 06:03:44;;;;;;;5.30;3.20;;;;;;;8.42;80.22;99053.34;104043;279;95568;-53
2023/03/26 06:06:20;;;;;;;5.30;3.50;;;;;;;8.49;80.03;99056.69;104089;281;96906;-53
2023/03/26 06:08:55;;;;;;;7.90;3.60;;;;;;;8.49;79.95;99053.41;104085;279;120681;-53
2023/03/26 06:11:34;;;;;;;6.90;3.40;;;;;;;8.51;79.64;99059.38;104502;279;105126;-56
2023/03/26 06:14:08;;;;;;;6.30;3.70;;;;;;;8.61;79.66;99062.92;104129;277;115180;-53
2023/03/26 06:16:42;;;;;;;6.10;3.50;;;;;;;8.72;79.52;99064.15;104165;277;94839;-53
2023/03/26 06:19:16;;;;;;;6.30;3.60;;;;;;;8.74;79.37;99068.00;104160;266;97884;-62
2023/03/26 06:21:52;;;;;;;6.20;3.80;;;;;;;8.82;79.21;99069.52;104104;277;119723;-58
2023/03/26 06:24:26;;;;;;;5.60;3.40;;;;;;;8.85;79.15;99066.73;104466;279;104953;-53
2023/03/26 06:27:00;;;;;;;7.60;4.20;;;;;;;8.84;78.88;99067.20;104027;279;113732;-52
2023/03/26 06:29:34;;;;;;;7.10;3.10;;;;;;;8.87;78.78;99065.61;104055;279;96038;-53
2023/03/26 06:32:08;;;;;;;6.20;3.20;;;;;;;8.88;78.56;99069.30;104068;279;96330;-53
2023/03/26 06:34:43;;;;;;;6.60;3.60;;;;;;;8.87;78.76;99071.58;104092;279;118677;-58
2023/03/26 06:37:16;;;;;;;;;;;;;;;8.89;78.90;99075.30;104067;279;105182;-58
2023/03/26 06:39:50;;;;;;;5.50;3.90;;;;;;;8.89;79.00;99075.96;104063;279;114445;-53
2023/03/26 06:42:25;;;;;;;6.40;3.40;;;;;;;8.85;78.96;99073.95;104069;279;96767;-58
2023/03/26 06:44:58;;;;;;;;;;;;;;;8.78;79.34;99075.98;104476;279;95913;-58
2023/03/26 06:47:32;;;;;;;7.00;2.90;;;;;;;8.86;79.54;99074.60;104084;279;119773;-53
2023/03/26 06:50:07;;;;;;;5.60;2.90;;;;;;;8.93;79.46;99077.48;104075;279;106027;-57
2023/03/26 06:52:42;;;;;;;4.40;2.90;;;;;;;9.02;79.60;99076.97;104023;279;114617;-53
2023/03/26 06:55:14;;;;;;;;;;;;;;;9.11;79.66;99076.98;104087;279;96601;-52
2023/03/26 06:57:53;;;;;;;5.80;3.20;;;;;;;9.15;80.02;99077.79;104082;279;97776;-57
2023/03/26 07:00:27;;;;;;;7.60;3.30;;;;;;;9.39;80.02;99076.71;104058;278;120353;-57
2023/03/26 07:03:03;;;;;;;6.00;3.00;;;;;;;9.69;79.97;99075.36;104074;279;105445;-57
2023/03/26 07:05:36;;;;;;;5.60;3.10;;;;;;;9.97;79.73;99070.66;104470;279;114820;-57
2023/03/26 07:08:11;;;;;;;4.70;3.10;;;;;;;10.20;79.65;99066.54;104076;279;95000;-53
2023/03/26 07:10:45;;;;;;;4.60;3.00;;;;;;;10.48;79.24;99063.94;104510;279;97749;-53
2023/03/26 07:13:19;;;;;;;4.80;2.50;;;;;;;10.71;79.04;99063.20;104062;277;119877;-53
2023/03/26 07:15:53;;;;;;;5.60;3.00;;;;;;;10.93;79.12;99060.27;104147;277;106072;-53
2023/03/26 07:18:26;;;;;;;;;;;;;;;11.41;78.42;99058.29;104131;277;113637;-58
2023/03/26 07:21:01;;;;;;;5.20;2.60;;;;;;;12.03;77.70;99054.86;104589;277;93099;-57
2023/03/26 07:23:36;;;;;;;5.20;2.60;;;;;;;12.17;75.76;99053.91;104624;277;97575;-58
2023/03/26 07:26:34;;;;;;;4.60;2.70;;;;;;;12.29;75.54;99054.29;104584;277;120248;-59
2023/03/26 07:29:18;;;;;;;4.60;2.60;;;;;;;12.25;74.48;99053.27;104148;277;106182;-58
2023/03/26 07:31:59;;;;;;;3.40;2.10;;;;;;;11.91;73.84;99059.14;104066;277;113847;-58
2023/03/26 07:34:50;;;;;;;4.40;2.20;;;;;;;11.56;73.71;99057.23;104106;277;92772;-58
2023/03/26 07:37:45;;;;;;;4.80;2.70;;;;;;;11.25;74.28;99058.03;103875;277;460887;-54
2023/03/26 07:40:37;;;;;;;3.10;2.30;;;;;;;10.93;74.26;99057.02;104092;277;120630;-53
2023/03/26 07:43:31;;;;;;;4.40;2.50;;;;;;;10.61;74.56;99055.02;104122;277;105601;-58
2023/03/26 07:46:10;;;;;;;4.20;2.30;;;;;;;10.31;74.78;99049.34;104100;277;113476;-58
2023/03/26 07:48:48;;;;;;;3.10;2.40;;;;;;;10.07;74.92;99050.19;104112;278;95955;-53
2023/03/26 07:51:23;;;;;;;3.60;2.20;;;;;;;9.89;75.11;99053.66;104110;277;96720;-53
2023/03/26 07:53:59;;;;;;;5.50;2.50;;;;;;;9.80;75.64;99056.42;104060;278;121068;-58
2023/03/26 07:56:38;;;;;;;5.50;2.50;;;;;;;9.73;75.83;99051.77;104121;277;105549;-58
2023/03/26 07:59:26;;;;;;;5.10;2.50;;;;;;;9.76;75.96;99051.96;104123;277;113700;-58
2023/03/26 08:02:42;;;;;;;5.00;2.40;;;;;;;9.82;76.01;99046.32;104107;277;94449;-58
2023/03/26 08:05:27;;;;;;;4.60;2.60;;;;;;;9.81;76.30;99045.41;104128;277;96031;-53
2023/03/26 08:08:15;;;;;;;4.80;2.80;;;;;;;10.02;76.27;99039.92;104091;277;119840;-53
2023/03/26 08:11:07;;;;;;;3.20;2.50;;;;;;;10.48;76.25;99037.31;104132;277;104248;-54
2023/03/26 08:13:58;;;;;;;4.40;2.50;;;;;;;10.72;75.59;99033.63;104106;277;113877;-53
2023/03/26 08:16:41;;;;;;;4.70;2.30;;;;;;;10.79;74.78;99033.56;104096;278;93398;-53
2023/03/26 08:19:37;;;;;;;4.00;2.20;;;;;;;10.71;73.88;99033.70;104121;277;98029;-53
2023/03/26 08:22:19;;;;;;;3.30;2.30;;;;;;;10.43;73.79;99031.92;104576;277;122034;-53
2023/03/26 08:25:16;;;;;;;2.40;1.80;;;;;;;10.21;74.16;99025.56;104083;277;105757;-53
2023/03/26 08:28:11;;;;;;;2.70;2.10;;;;;;;9.98;73.65;99029.83;104567;277;113857;-53
2023/03/26 08:30:47;;;;;;;3.00;2.40;;;;;;;9.83;73.86;99031.95;104093;277;93914;-52
2023/03/26 08:33:26;;;;;;;3.10;2.20;;;;;;;9.79;74.13;99032.77;104107;277;96566;-53
2023/03/26 08:36:00;;;;;;;3.90;2.30;;;;;;;9.81;74.28;99030.10;104076;277;120185;-53
2023/03/26 08:38:35;;;;;;;3.50;2.20;;;;;;;9.79;74.24;99031.90;104609;277;104849;-57
2023/03/26 08:42:01;;;;;;;4.70;2.50;;;;;;;9.88;74.38;99025.86;104072;277;113467;-57
2023/03/26 08:45:33;;;;;;;3.10;2.30;;;;;;;10.13;74.65;99025.70;103915;278;99073;-53
2023/03/26 08:48:57;;;;;;;4.20;2.60;;;;;;;10.27;74.61;99028.08;104118;278;96058;-53
2023/03/26 08:52:15;;;;;;;4.00;2.50;;;;;;;10.38;74.76;99028.60;104040;277;120448;-53
2023/03/26 08:55:27;;;;;;;5.70;2.80;;;;;;;10.38;74.66;99028.95;103941;277;104322;-53
2023/03/26 08:58:42;;;;;;;4.80;2.80;;;;;;;10.43;74.53;99025.20;104076;277;113861;-59
2023/03/26 09:01:46;;;;;;;5.00;2.30;;;;;;;10.75;74.61;99022.68;103962;279;94862;-59
2023/03/26 09:05:13;;;;;;;3.20;2.30;;;;;;;11.84;75.06;99023.98;104090;278;101495;-59
2023/03/26 09:08:17;;;;;;;3.30;2.20;;;;;;;13.09;73.01;99019.46;103976;279;120608;-58
2023/03/26 09:11:13;;;;;;;3.90;2.50;;;;;;;14.19;72.94;99008.63;104073;279;106439;-54
2023/03/26 09:14:29;;;;;;;4.50;2.10;;;;;;;14.83;70.67;99009.99;103831;277;114419;-59
2023/03/26 09:17:32;;;;;;;3.90;2.80;;;;;;;14.17;68.87;99010.90;104599;277;92496;-59
2023/03/26 09:20:51;;;;;;;4.10;2.20;;;;;;;13.60;69.27;99006.45;104147;277;97191;-53
2023/03/26 09:24:03;;;;;;;4.00;2.70;;;;;;;12.96;69.25;99010.38;104175;277;120606;-60
2023/03/26 09:26:51;;;;;;;4.10;2.50;;;;;;;12.56;69.85;99006.39;104127;277;104350;-59
2023/03/26 09:30:11;;;;;;;3.60;2.70;;;;;;;12.26;69.89;99005.69;104093;277;115014;-60
2023/03/26 09:33:48;;;;;;;3.10;2.40;;;;;;;12.01;70.33;99006.90;104132;277;92668;-58
2023/03/26 09:36:42;;;;;;;5.00;2.60;;;;;;;11.92;70.79;99007.74;103887;278;97152;-58
2023/03/26 09:39:33;;;;;;;2.80;2.20;;;;;;;11.84;70.45;99004.74;104032;277;119264;-57
2023/03/26 09:42:32;;;;;;;4.30;2.60;;;;;;;11.41;70.13;99006.42;104151;277;106195;-58
2023/03/26 09:45:52;;;;;;;5.10;2.60;;;;;;;11.18;70.41;99011.98;104134;277;112704;-53
2023/03/26 09:49:14;;;;;;;3.60;2.40;;;;;;;11.29;70.83;99012.52;104031;277;92922;-57
2023/03/26 09:52:20;;;;;;;6.10;3.10;;;;;;;11.24;70.76;99013.29;104039;277;95999;-54
2023/03/26 09:55:35;;;;;;;3.40;2.40;;;;;;;11.46;70.70;99007.68;104077;277;120313;-53
2023/03/26 09:58:47;;;;;;;4.20;2.20;;;;;;;11.86;70.08;98999.48;104081;279;104122;-53
2023/03/26 10:01:34;;;;;;;3.20;2.30;;;;;;;11.85;69.49;98997.95;104157;278;113631;-53
2023/03/26 10:04:44;;;;;;;2.60;2.00;;;;;;;11.95;69.84;99002.30;104074;282;93256;-58
2023/03/26 10:07:41;;;;;;;3.50;1.70;;;;;;;11.93;69.41;99002.31;103989;277;97021;-56
2023/03/26 10:10:26;;;;;;;2.90;1.50;;;;;;;11.70;68.68;99014.02;104117;277;120967;-53
2023/03/26 10:13:08;;;;;;;1.90;1.30;;;;;;;11.84;69.33;99010.33;104143;277;104935;-57
2023/03/26 10:16:03;;;;;;;4.40;1.80;;;;;;;12.12;69.32;99003.39;104217;277;113108;-58
2023/03/26 10:18:54;;;;;;;2.70;1.60;;;;;;;12.27;69.26;99004.90;104336;277;92502;-54
2023/03/26 10:21:45;;;;;;;2.20;1.70;;;;;;;12.57;69.32;98997.27;104312;277;96719;-54
2023/03/26 10:24:40;;;;;;;2.90;1.80;;;;;;;12.84;68.93;98992.55;104340;278;119356;-58
2023/03/26 10:27:31;;;;;;;2.30;1.80;;;;;;;13.08;68.40;98992.21;104307;277;104189;-58
2023/03/26 10:30:42;;;;;;;3.50;1.90;;;;;;;13.14;66.88;98988.02;104272;278;114168;-54
2023/03/26 10:33:37;;;;;;;3.20;1.80;;;;;;;13.17;66.81;98983.41;104213;277;94990;-58
2023/03/26 10:36:30;;;;;;;3.80;1.70;;;;;;;13.21;66.18;98978.23;104296;277;96819;-58
2023/03/26 10:39:34;;;;;;;3.10;1.50;;;;;;;13.31;66.27;98975.51;104723;277;118134;-59
2023/03/26 10:42:25;;;;;;;2.00;1.30;;;;;;;13.14;65.22;98983.46;104301;277;106048;-53
2023/03/26 10:45:31;;;;;;;2.90;1.30;;;;;;;12.48;64.93;98995.59;104722;277;114678;-59
2023/03/26 10:48:34;;;;;;;3.30;1.50;;;;;;;11.89;66.12;98996.43;104293;277;93998;-53
2023/03/26 10:51:47;;;;;;;2.70;1.40;;;;;;;11.90;67.61;98998.83;104740;277;97937;-53
2023/03/26 10:54:36;;;;;;;3.70;1.50;;;;;;;12.32;68.46;98988.66;104221;277;120168;-53
2023/03/26 10:57:33;;;;;;;2.70;1.30;;;;;;;12.38;68.14;98984.95;104205;277;104978;-53
2023/03/26 11:00:24;;;;;;;2.50;1.50;;;;;;;12.68;68.50;98983.60;104158;277;113808;-53
2023/03/26 11:03:34;;;;;;;1.80;1.30;;;;;;;13.08;68.79;98977.36;104140;278;94301;-53
2023/03/26 11:06:24;;;;;;;2.30;1.30;;;;;;;13.35;68.73;98967.52;104068;279;96435;-53
2023/03/26 11:09:08;;;;;;;2.60;1.70;;;;;;;13.54;66.25;98967.98;104172;277;120981;-53
2023/03/26 11:11:52;;;;;;;2.90;1.50;;;;;;;13.48;65.72;98966.56;104100;278;104868;-53
2023/03/26 11:14:33;;;;;;;2.80;1.60;;;;;;;13.52;66.13;98967.06;104538;278;115015;-53
2023/03/26 11:17:19;;;;;;;2.30;1.20;;;;;;;13.39;65.69;98970.08;104114;278;94786;-53
2023/03/26 11:20:03;;;;;;;2.40;1.70;;;;;;;13.08;64.30;98975.78;104108;278;96766;-53
2023/03/26 11:22:49;;;;;;;3.00;1.80;;;;;;;12.72;64.91;98983.02;104108;278;120273;-58
2023/03/26 11:25:42;;;;;;;2.50;1.60;;;;;;;12.45;65.51;98981.23;104053;278;104851;-58
2023/03/26 11:28:36;;;;;;;4.40;1.80;;;;;;;12.30;65.66;98980.96;104083;274;113175;-54
2023/03/26 11:31:20;;;;;;;3.30;1.90;;;;;;;12.15;65.70;98979.48;104104;282;94204;-54
2023/03/26 11:34:02;;;;;;;2.80;1.60;;;;;;;12.05;65.99;98983.52;104105;278;95440;-60
2023/03/26 11:36:44;;;;;;;2.60;1.40;;;;;;;11.96;65.99;98982.62;104555;278;121951;-59
2023/03/26 11:39:26;;;;;;;2.00;1.30;;;;;;;11.88;65.73;98986.38;104085;290;105056;-58
2023/03/26 11:42:07;;;;;;;2.10;1.50;;;;;;;11.89;65.66;98980.56;104094;278;113302;-56
2023/03/26 11:44:48;;;;;;;2.40;1.60;;;;;;;12.02;65.95;98980.40;104103;278;92094;-52
2023/03/26 11:47:31;;;;;;;2.80;1.40;;;;;;;12.43;65.71;98981.45;104139;278;96114;-53
2023/03/26 11:50:14;;;;;;;2.10;1.50;;;;;;;12.76;65.62;98978.34;104058;278;120415;-53
2023/03/26 11:52:49;;;;;;;2.20;1.20;;;;;;;12.86;65.04;98978.95;104106;278;103862;-58
2023/03/26 11:55:23;;;;;;;;;;;;;;;12.69;63.78;98993.34;104074;278;114689;-53
2023/03/26 11:58:03;;;;;;;2.10;1.10;;;;;;;12.45;63.82;99002.83;104112;278;94112;-54
2023/03/26 12:00:39;;;;;;;1.60;1.10;;;;;;;12.19;64.72;98999.94;104120;278;96876;-54
2023/03/26 12:03:21;;;;;;;2.30;1.30;;;;;;;12.06;65.56;98996.36;104131;278;120447;-55
2023/03/26 12:06:02;;;;;;;;;;;;;;;11.98;66.41;98995.35;104125;278;105014;-54
2023/03/26 12:08:44;;;;;;;2.80;2.00;;;;;;;11.78;66.79;98999.89;104079;279;112965;-54
2023/03/26 12:11:23;;;;;;;7.00;3.40;;;;;;;11.80;67.48;99000.73;104046;279;93871;-54
2023/03/26 12:14:04;;;;;;;4.70;2.60;;;;;;;11.95;67.74;98993.55;104112;279;95530;-59
2023/03/26 12:16:56;;;;;;;4.10;2.50;;;;;;;12.04;67.52;98992.31;104088;279;120577;-58
2023/03/26 12:19:38;;;;;;;4.50;2.10;;;;;;;11.95;67.34;98990.17;104062;279;104674;-59
2023/03/26 12:22:36;;;;;;;2.60;2.00;;;;;;;11.88;67.71;98996.93;104096;279;113825;-53
2023/03/26 12:25:22;;;;;;;1.80;1.60;;;;;;;11.99;67.60;98989.03;104076;279;95004;-58
2023/03/26 12:28:04;;;;;;;3.30;1.70;;;;;;;12.00;67.42;98989.66;104083;279;97181;-59
2023/03/26 12:30:43;;;;;;;2.30;1.70;;;;;;;12.03;67.21;98985.95;103830;279;121847;-52
2023/03/26 12:33:26;;;;;;;2.00;1.30;;;;;;;12.01;66.89;98979.50;104080;279;105690;-57
2023/03/26 12:36:17;;;;;;;2.20;1.40;;;;;;;11.95;66.34;98976.92;103951;279;113552;-57
2023/03/26 12:38:52;;;;;;;1.70;1.30;;;;;;;11.93;66.04;98971.17;104511;279;94697;-54
2023/03/26 12:41:43;;;;;;;1.50;1.10;;;;;;;12.07;65.79;98968.77;104082;279;96596;-54
2023/03/26 12:44:28;;;;;;;1.60;1.30;;;;;;;12.13;65.34;98965.90;104480;279;120635;-53
2023/03/26 12:47:19;;;;;;;1.50;1.10;;;;;;;12.20;65.21;98967.30;103920;279;105254;-53
2023/03/26 12:49:54;;;;;;;1.50;1.20;;;;;;;12.34;64.14;98964.30;104085;279;114857;-54